createdAt,value
2022-09-28T00:01:13.588Z,97444.81
2022-09-28T00:03:40.658Z,97465.53
2022-09-28T00:06:11.247Z,97430.75
2022-09-28T00:08:38.838Z,97466.25
2022-09-28T00:11:08.760Z,97455.19
2022-09-28T00:13:35.757Z,97447.72
2022-09-28T00:16:12.443Z,97438.09
2022-09-28T00:18:39.888Z,97424.38
2022-09-28T00:21:13.309Z,97437.25
2022-09-28T00:23:59.596Z,97400.63
2022-09-28T00:26:33.230Z,97425.00
2022-09-28T00:29:02.454Z,97428.63
2022-09-28T00:31:32.898Z,97395.53
2022-09-28T00:34:02.285Z,97387.19
2022-09-28T00:36:32.795Z,97381.53
2022-09-28T00:39:05.870Z,97350.28
2022-09-28T00:41:34.191Z,97369.78
2022-09-28T00:44:25.872Z,97360.69
2022-09-28T00:47:03.679Z,97370.06
2022-09-28T00:49:41.204Z,97365.81
2022-09-28T00:52:14.294Z,97345.78
2022-09-28T00:54:45.877Z,97387.66
2022-09-28T00:57:13.828Z,97363.94
2022-09-28T00:59:41.680Z,97383.63
2022-09-28T01:02:10.575Z,97336.84
2022-09-28T01:04:38.953Z,97388.31
2022-09-28T01:07:08.878Z,97331.19
2022-09-28T01:09:39.919Z,97319.22
2022-09-28T01:12:08.261Z,97284.25
2022-09-28T01:14:35.274Z,97271.78
2022-09-28T01:17:25.568Z,97252.34
2022-09-28T01:20:26.751Z,97276.31
2022-09-28T01:23:13.092Z,97249.31
2022-09-28T01:26:27.913Z,97253.94
2022-09-28T01:29:10.725Z,97239.72
2022-09-28T01:31:45.334Z,97207.44
2022-09-28T01:34:24.132Z,97261.16
2022-09-28T01:36:56.828Z,97246.69
2022-09-28T01:39:34.965Z,97224.09
2022-09-28T01:42:11.932Z,97250.06
2022-09-28T01:44:44.400Z,97222.91
2022-09-28T01:47:15.684Z,97210.66
2022-09-28T01:50:03.048Z,97213.13
2022-09-28T01:52:45.542Z,97246.69
2022-09-28T01:55:19.830Z,97247.38
2022-09-28T01:57:58.020Z,97188.59
2022-09-28T02:00:26.230Z,97179.63
2022-09-28T02:03:08.968Z,97150.38
2022-09-28T02:05:49.092Z,97163.94
2022-09-28T02:08:28.429Z,97110.63
2022-09-28T02:11:05.743Z,97160.50
2022-09-28T02:14:03.058Z,97117.59
2022-09-28T02:16:48.507Z,97116.22
2022-09-28T02:19:21.275Z,97147.25
2022-09-28T02:21:54.739Z,97149.75
2022-09-28T02:25:10.648Z,97175.84
2022-09-28T02:27:43.610Z,97179.31
2022-09-28T02:30:11.978Z,97199.97
2022-09-28T02:32:44.932Z,97180.16
2022-09-28T02:35:15.902Z,97201.13
2022-09-28T02:37:43.284Z,97202.03
2022-09-28T02:40:20.574Z,97178.09
2022-09-28T02:43:16.634Z,97187.75
2022-09-28T02:46:13.046Z,97194.81
2022-09-28T02:49:22.079Z,97162.34
2022-09-28T02:52:18.320Z,97181.56
2022-09-28T02:55:18.613Z,97139.34
2022-09-28T02:58:06.805Z,97196.38
2022-09-28T03:00:54.673Z,97163.88
2022-09-28T03:03:53.744Z,97163.78
2022-09-28T03:06:32.097Z,97115.72
2022-09-28T03:09:25.824Z,97180.16
2022-09-28T03:12:01.470Z,97171.53
2022-09-28T03:14:29.112Z,97174.63
2022-09-28T03:16:57.543Z,97172.31
2022-09-28T03:19:30.357Z,97183.78
2022-09-28T03:21:57.259Z,97138.91
2022-09-28T03:24:24.203Z,97194.13
2022-09-28T03:26:51.708Z,97177.66
2022-09-28T03:29:20.413Z,97195.84
2022-09-28T03:31:52.369Z,97225.31
2022-09-28T03:34:19.305Z,97202.59
2022-09-28T03:36:46.400Z,97232.00
2022-09-28T03:39:13.710Z,97238.22
2022-09-28T03:41:41.133Z,97150.91
2022-09-28T03:44:08.292Z,97130.13
2022-09-28T03:46:35.375Z,97166.00
2022-09-28T03:49:06.624Z,97144.53
2022-09-28T03:51:33.660Z,97138.31
2022-09-28T03:54:00.788Z,97108.00
2022-09-28T03:56:27.966Z,97108.84
2022-09-28T03:58:55.223Z,97158.97
2022-09-28T04:01:22.229Z,97087.63
2022-09-28T04:03:56.073Z,97127.09
2022-09-28T04:06:25.236Z,97133.13
2022-09-28T04:08:52.801Z,97093.69
2022-09-28T04:11:20.233Z,97115.25
2022-09-28T04:13:50.860Z,97112.97
2022-09-28T04:16:18.968Z,97102.66
2022-09-28T04:18:58.869Z,97075.94
2022-09-28T04:21:46.778Z,97135.28
2022-09-28T04:24:14.902Z,97123.97
2022-09-28T04:26:42.059Z,97113.88
2022-09-28T04:29:17.783Z,97153.16
2022-09-28T04:31:53.435Z,97083.03
2022-09-28T04:34:36.506Z,97126.97
2022-09-28T04:37:05.220Z,97121.91
2022-09-28T04:39:32.296Z,97137.81
2022-09-28T04:41:59.896Z,97132.84
2022-09-28T04:44:27.729Z,97091.13
2022-09-28T04:47:06.347Z,97125.34
2022-09-28T04:49:35.381Z,97098.81
2022-09-28T04:52:09.579Z,97105.84
2022-09-28T04:54:38.032Z,97114.38
2022-09-28T04:57:06.825Z,97143.16
2022-09-28T04:59:33.968Z,97121.81
2022-09-28T05:02:01.013Z,97104.94
2022-09-28T05:04:51.049Z,97105.63
2022-09-28T05:07:36.331Z,97120.06
2022-09-28T05:10:05.942Z,97113.34
2022-09-28T05:12:33.691Z,97128.88
2022-09-28T05:15:00.834Z,97091.22
2022-09-28T05:17:27.987Z,97129.91
2022-09-28T05:20:09.890Z,97169.09
2022-09-28T05:22:36.780Z,97170.44
2022-09-28T05:25:05.940Z,97161.97
2022-09-28T05:27:44.258Z,97141.53
2022-09-28T05:30:26.505Z,97165.06
2022-09-28T05:33:11.883Z,97152.06
2022-09-28T05:35:44.734Z,97160.75
2022-09-28T05:38:11.987Z,97186.78
2022-09-28T05:40:38.987Z,97124.91
2022-09-28T05:43:06.111Z,97123.16
2022-09-28T05:45:33.716Z,97175.16
2022-09-28T05:48:00.931Z,97154.03
2022-09-28T05:50:27.979Z,97180.94
2022-09-28T05:53:06.624Z,97168.41
2022-09-28T05:55:34.789Z,97156.78
2022-09-28T05:58:05.972Z,97156.97
2022-09-28T06:00:35.809Z,97140.78
2022-09-28T06:03:09.270Z,97177.56
2022-09-28T06:05:39.385Z,97205.59
2022-09-28T06:08:10.352Z,97139.38
2022-09-28T06:10:39.017Z,97160.41
2022-09-28T06:13:07.350Z,97149.44
2022-09-28T06:15:36.932Z,97190.84
2022-09-28T06:18:09.356Z,97163.34
2022-09-28T06:20:44.308Z,97151.78
2022-09-28T06:23:15.861Z,97198.78
2022-09-28T06:25:43.383Z,97148.50
2022-09-28T06:28:13.602Z,97186.19
2022-09-28T06:30:42.542Z,97197.81
2022-09-28T06:33:14.491Z,97205.25
2022-09-28T06:35:42.437Z,97198.84
2022-09-28T06:38:11.221Z,97170.50
2022-09-28T06:40:38.840Z,97171.34
2022-09-28T06:43:15.216Z,97206.78
2022-09-28T06:46:02.405Z,97211.03
2022-09-28T06:48:59.198Z,97191.75
2022-09-28T06:51:48.981Z,97206.66
2022-09-28T06:54:25.757Z,97210.59
2022-09-28T06:57:13.234Z,97239.13
2022-09-28T06:59:40.565Z,97259.75
2022-09-28T07:02:16.063Z,97260.16
2022-09-28T07:05:27.154Z,97289.00
2022-09-28T07:07:59.753Z,97242.00
2022-09-28T07:10:48.599Z,97261.00
2022-09-28T07:16:13.366Z,97284.84
2022-09-28T07:18:42.175Z,97307.72
2022-09-28T07:21:14.935Z,97267.97
2022-09-28T07:23:53.908Z,97327.91
2022-09-28T07:26:24.842Z,97346.28
2022-09-28T07:29:15.454Z,97302.97
2022-09-28T07:32:01.803Z,97307.22
2022-09-28T07:34:50.198Z,97330.34
2022-09-28T07:37:39.095Z,97308.50
2022-09-28T07:40:27.140Z,97335.22
2022-09-28T07:42:54.697Z,97326.16
2022-09-28T07:45:24.468Z,97341.22
2022-09-28T07:47:58.433Z,97344.09
2022-09-28T07:50:36.796Z,97323.34
2022-09-28T07:53:16.322Z,97336.41
2022-09-28T07:56:21.296Z,97366.53
2022-09-28T07:59:11.502Z,97333.34
2022-09-28T08:01:39.402Z,97373.91
2022-09-28T08:04:08.493Z,97375.25
2022-09-28T08:06:40.469Z,97380.59
2022-09-28T08:09:08.759Z,97347.09
2022-09-28T08:11:56.124Z,97364.25
2022-09-28T08:14:37.805Z,97334.09
2022-09-28T08:17:28.171Z,97350.84
2022-09-28T08:20:17.234Z,97354.03
2022-09-28T08:22:44.220Z,97338.66
2022-09-28T08:25:11.699Z,97359.63
2022-09-28T08:27:38.810Z,97367.88
2022-09-28T08:30:07.065Z,97379.25
2022-09-28T08:32:49.702Z,97356.94
2022-09-28T08:35:40.913Z,97368.34
2022-09-28T08:38:20.605Z,97350.78
2022-09-28T08:41:44.581Z,97363.41
2022-09-28T08:44:50.634Z,97402.38
2022-09-28T08:48:08.536Z,97399.63
2022-09-28T08:51:11.092Z,97404.66
2022-09-28T08:54:04.855Z,97400.00
2022-09-28T08:56:52.214Z,97402.44
2022-09-28T08:59:25.118Z,97348.88
2022-09-28T09:02:03.682Z,97395.84
2022-09-28T09:04:33.838Z,97377.72
2022-09-28T09:07:48.637Z,97399.81
2022-09-28T09:10:53.400Z,97423.47
2022-09-28T09:13:58.493Z,97398.09
2022-09-28T09:16:34.452Z,97377.41
2022-09-28T09:19:35.535Z,97398.09
2022-09-28T09:22:26.024Z,97418.63
2022-09-28T09:25:47.475Z,97423.63
2022-09-28T09:28:43.887Z,97442.75
2022-09-28T09:31:51.258Z,97425.88
2022-09-28T09:34:51.741Z,97415.72
2022-09-28T09:38:27.942Z,97409.50
2022-09-28T09:41:27.046Z,97413.97
2022-09-28T09:44:52.954Z,97406.19
2022-09-28T09:47:51.105Z,97389.97
2022-09-28T09:50:57.857Z,97359.81
2022-09-28T09:53:40.763Z,97387.59
2022-09-28T09:56:40.330Z,97377.69
2022-09-28T09:59:20.158Z,97364.91
2022-09-28T10:02:28.192Z,97372.50
2022-09-28T10:05:24.047Z,97374.88
2022-09-28T10:08:01.864Z,97366.72
2022-09-28T10:10:36.087Z,97381.38
2022-09-28T10:13:12.275Z,97370.50
2022-09-28T10:15:42.258Z,97343.59
2022-09-28T10:18:21.141Z,97368.78
2022-09-28T10:21:07.090Z,97356.53
2022-09-28T10:24:02.701Z,97368.88
2022-09-28T10:26:44.231Z,97387.09
2022-09-28T10:29:19.865Z,97357.91
2022-09-28T10:31:52.991Z,97372.84
2022-09-28T10:34:30.145Z,97349.13
2022-09-28T10:37:06.740Z,97395.34
2022-09-28T10:39:55.591Z,97384.84
2022-09-28T10:42:32.417Z,97366.72
2022-09-28T10:45:23.848Z,97348.84
2022-09-28T10:47:51.422Z,97361.44
2022-09-28T10:50:26.398Z,97344.72
2022-09-28T10:53:21.132Z,97349.41
2022-09-28T10:56:26.837Z,97388.25
2022-09-28T10:59:01.063Z,97382.75
2022-09-28T11:01:43.690Z,97355.91
2022-09-28T11:04:24.383Z,97354.09
2022-09-28T11:06:51.924Z,97355.28
2022-09-28T11:09:42.811Z,97340.13
2022-09-28T11:12:18.399Z,97368.59
2022-09-28T11:14:47.334Z,97355.38
2022-09-28T11:17:31.053Z,97397.66
2022-09-28T11:20:27.845Z,97387.06
2022-09-28T11:23:08.203Z,97355.28
2022-09-28T11:25:39.543Z,97366.72
2022-09-28T11:28:15.625Z,97384.66
2022-09-28T11:30:52.598Z,97376.88
2022-09-28T11:33:42.262Z,97368.44
2022-09-28T11:36:58.361Z,97379.28
2022-09-28T11:40:23.027Z,97352.28
2022-09-28T11:43:16.718Z,97376.19
2022-09-28T11:46:06.366Z,97358.31
2022-09-28T11:48:51.114Z,97384.81
2022-09-28T11:51:29.227Z,97359.44
2022-09-28T11:54:14.445Z,97365.69
2022-09-28T11:56:48.544Z,97358.41
2022-09-28T11:59:36.788Z,97377.41
2022-09-28T12:02:20.751Z,97372.94
2022-09-28T12:05:23.981Z,97394.31
2022-09-28T12:08:12.578Z,97368.75
2022-09-28T12:11:15.665Z,97398.22
2022-09-28T12:14:05.111Z,97383.53
2022-09-28T12:19:42.565Z,97383.88
2022-09-28T12:22:22.076Z,97386.72
2022-09-28T12:24:54.736Z,97366.41
2022-09-28T12:27:40.443Z,97368.47
2022-09-28T12:30:22.244Z,97408.28
2022-09-28T12:33:01.715Z,97399.31
2022-09-28T12:36:19.210Z,97388.53
2022-09-28T12:39:40.999Z,97397.66
2022-09-28T12:42:47.557Z,97388.66
2022-09-28T12:46:17.504Z,97376.19
2022-09-28T12:52:58.063Z,97384.47
2022-09-28T12:55:42.353Z,97419.50
2022-09-28T12:58:33.840Z,97372.81
2022-09-28T13:01:08.689Z,97377.56
2022-09-28T13:04:13.829Z,97390.13
2022-09-28T13:07:05.280Z,97382.41
2022-09-28T13:10:26.501Z,97373.72
2022-09-28T13:13:17.620Z,97386.69
2022-09-28T13:16:17.500Z,97401.56
2022-09-28T13:19:22.615Z,97368.47
2022-09-28T13:22:07.472Z,97385.84
2022-09-28T13:24:41.722Z,97371.53
2022-09-28T13:27:21.760Z,97412.13
2022-09-28T13:29:51.215Z,97365.84
2022-09-28T13:32:19.452Z,97377.00
2022-09-28T13:34:50.643Z,97408.66
2022-09-28T13:37:21.854Z,97355.66
2022-09-28T13:39:52.751Z,97400.69
2022-09-28T13:42:42.206Z,97371.13
2022-09-28T13:45:37.821Z,97400.97
2022-09-28T13:48:20.509Z,97404.16
2022-09-28T13:51:14.191Z,97377.75
2022-09-28T13:54:00.591Z,97405.72
2022-09-28T13:57:05.619Z,97383.28
2022-09-28T13:59:40.847Z,97408.81
2022-09-28T14:02:36.728Z,97384.47
2022-09-28T14:05:23.558Z,97413.13
2022-09-28T14:08:09.256Z,97381.56
2022-09-28T14:10:52.813Z,97391.22
2022-09-28T14:13:41.679Z,97431.47
2022-09-28T14:16:32.940Z,97395.72
2022-09-28T14:19:12.441Z,97409.78
2022-09-28T14:22:12.691Z,97421.97
2022-09-28T14:24:55.477Z,97402.00
2022-09-28T14:27:37.763Z,97414.00
2022-09-28T14:30:27.887Z,97428.16
2022-09-28T14:32:58.689Z,97432.47
2022-09-28T14:35:41.448Z,97415.91
2022-09-28T14:38:49.483Z,97428.50
2022-09-28T14:41:17.669Z,97449.41
2022-09-28T14:43:44.501Z,97430.16
2022-09-28T14:46:11.593Z,97409.38
2022-09-28T14:49:03.833Z,97434.88
2022-09-28T14:51:30.599Z,97433.34
2022-09-28T14:54:10.509Z,97428.59
2022-09-28T14:56:43.647Z,97429.56
2022-09-28T14:59:20.789Z,97448.97
2022-09-28T15:02:08.229Z,97425.22
2022-09-28T15:04:56.331Z,97415.06
2022-09-28T15:07:41.978Z,97417.56
2022-09-28T15:10:33.802Z,97416.41
2022-09-28T15:13:05.307Z,97409.00
2022-09-28T15:15:40.070Z,97438.09
2022-09-28T15:18:46.177Z,97424.19
2022-09-28T15:21:14.250Z,97393.63
2022-09-28T15:23:44.102Z,97400.00
2022-09-28T15:26:32.080Z,97419.50
2022-09-28T15:29:03.248Z,97419.84
2022-09-28T15:31:35.974Z,97449.22
2022-09-28T15:34:28.755Z,97424.53
2022-09-28T15:36:56.519Z,97440.44
2022-09-28T15:39:32.224Z,97463.56
2022-09-28T15:42:00.395Z,97452.22
2022-09-28T15:44:37.135Z,97427.91
2022-09-28T15:47:24.783Z,97458.72
2022-09-28T15:50:22.824Z,97487.50
2022-09-28T15:53:06.124Z,97486.91
2022-09-28T15:55:39.268Z,97480.66
2022-09-28T15:58:22.637Z,97447.50
2022-09-28T16:01:12.179Z,97456.84
2022-09-28T16:03:39.527Z,97472.28
2022-09-28T16:06:10.315Z,97487.94
2022-09-28T16:08:40.220Z,97482.31
2022-09-28T16:11:19.857Z,97503.81
2022-09-28T16:14:06.426Z,97473.06
2022-09-28T16:16:49.613Z,97446.28
2022-09-28T16:19:29.828Z,97451.13
2022-09-28T16:22:03.232Z,97432.13
2022-09-28T16:24:37.349Z,97431.63
2022-09-28T16:27:40.232Z,97455.59
2022-09-28T16:30:16.284Z,97428.50
2022-09-28T16:32:53.506Z,97446.63
2022-09-28T16:35:26.205Z,97461.13
2022-09-28T16:38:12.454Z,97448.34
2022-09-28T16:40:42.915Z,97430.84
2022-09-28T16:43:36.685Z,97428.28
2022-09-28T16:46:06.768Z,97432.97
2022-09-28T16:48:39.456Z,97434.69
2022-09-28T16:51:06.555Z,97452.00
2022-09-28T16:53:51.892Z,97438.50
2022-09-28T16:56:18.896Z,97470.63
2022-09-28T16:58:48.083Z,97446.41
2022-09-28T17:01:15.360Z,97444.47
2022-09-28T17:03:46.836Z,97454.34
2022-09-28T17:06:14.827Z,97477.59
2022-09-28T17:08:43.152Z,97434.13
2022-09-28T17:11:19.293Z,97439.53
2022-09-28T17:13:50.722Z,97432.38
2022-09-28T17:16:36.750Z,97409.81
2022-09-28T17:19:26.981Z,97448.75
2022-09-28T17:21:54.005Z,97441.19
2022-09-28T17:24:21.326Z,97433.38
2022-09-28T17:26:51.782Z,97428.00
2022-09-28T17:29:19.158Z,97434.84
2022-09-28T17:31:47.511Z,97449.81
2022-09-28T17:34:16.753Z,97447.06
2022-09-28T17:36:44.673Z,97461.66
2022-09-28T17:39:18.815Z,97434.63
2022-09-28T17:41:46.121Z,97434.13
2022-09-28T17:44:16.769Z,97464.53
2022-09-28T17:46:48.552Z,97463.19
2022-09-28T17:49:17.001Z,97486.59
2022-09-28T17:51:44.009Z,97472.25
2022-09-28T17:54:12.916Z,97491.78
2022-09-28T17:56:39.936Z,97494.09
2022-09-28T17:59:12.659Z,97493.81
2022-09-28T18:01:40.678Z,97490.00
2022-09-28T18:04:23.089Z,97485.19
2022-09-28T18:06:59.056Z,97498.31
2022-09-28T18:09:26.252Z,97489.69
2022-09-28T18:12:03.885Z,97510.97
2022-09-28T18:14:31.190Z,97479.63
2022-09-28T18:16:58.265Z,97520.66
2022-09-28T18:19:28.560Z,97505.75
2022-09-28T18:21:58.981Z,97482.28
2022-09-28T18:24:25.983Z,97505.06
2022-09-28T18:26:53.035Z,97507.19
2022-09-28T18:29:19.953Z,97504.91
2022-09-28T18:31:48.694Z,97517.09
2022-09-28T18:34:15.700Z,97483.38
2022-09-28T18:36:42.613Z,97481.13
2022-09-28T18:39:09.806Z,97499.03
2022-09-28T18:41:36.813Z,97517.06
2022-09-28T18:44:03.858Z,97489.00
2022-09-28T18:46:36.742Z,97539.78
2022-09-28T18:49:07.012Z,97506.31
2022-09-28T18:51:33.938Z,97511.50
2022-09-28T18:54:06.663Z,97521.91
2022-09-28T18:56:37.261Z,97504.63
2022-09-28T18:59:20.977Z,97542.78
2022-09-28T19:01:48.045Z,97548.50
2022-09-28T19:04:15.411Z,97552.03
2022-09-28T19:06:44.635Z,97508.03
2022-09-28T19:09:12.344Z,97522.34
2022-09-28T19:11:39.357Z,97546.00
2022-09-28T19:14:06.266Z,97538.72
2022-09-28T19:16:34.871Z,97542.41
2022-09-28T19:19:03.103Z,97545.16
2022-09-28T19:21:30.825Z,97523.00
2022-09-28T19:24:01.834Z,97525.56
2022-09-28T19:26:30.859Z,97552.97
2022-09-28T19:28:58.839Z,97527.19
2022-09-28T19:31:26.897Z,97544.47
2022-09-28T19:33:54.256Z,97571.78
2022-09-28T19:36:24.379Z,97535.13
2022-09-28T19:38:53.078Z,97560.66
2022-09-28T19:41:44.824Z,97547.13
2022-09-28T19:44:28.110Z,97549.69
2022-09-28T19:47:08.674Z,97518.63
2022-09-28T19:49:38.519Z,97507.56
2022-09-28T19:52:14.329Z,97550.66
2022-09-28T19:54:54.441Z,97516.03
2022-09-28T19:57:24.730Z,97554.94
2022-09-28T19:59:54.969Z,97545.81
2022-09-28T20:02:23.991Z,97520.63
2022-09-28T20:04:51.195Z,97571.41
2022-09-28T20:07:18.300Z,97556.53
2022-09-28T20:09:45.322Z,97536.19
2022-09-28T20:12:12.530Z,97527.13
2022-09-28T20:14:40.413Z,97546.59
2022-09-28T20:17:08.114Z,97531.72
2022-09-28T20:19:36.040Z,97541.22
2022-09-28T20:22:03.435Z,97517.94
2022-09-28T20:24:31.514Z,97565.06
2022-09-28T20:26:59.172Z,97518.16
2022-09-28T20:29:26.639Z,97523.38
2022-09-28T20:31:53.608Z,97542.88
2022-09-28T20:34:20.787Z,97543.41
2022-09-28T20:36:48.280Z,97528.38
2022-09-28T20:39:15.412Z,97521.81
2022-09-28T20:41:42.458Z,97509.59
2022-09-28T20:44:10.036Z,97495.66
2022-09-28T20:46:38.163Z,97525.66
2022-09-28T20:49:07.055Z,97510.91
2022-09-28T20:51:33.972Z,97543.97
2022-09-28T20:54:01.109Z,97537.97
2022-09-28T20:56:38.119Z,97549.34
2022-09-28T20:59:11.611Z,97540.13
2022-09-28T21:01:39.091Z,97526.28
2022-09-28T21:04:08.360Z,97548.63
2022-09-28T21:06:39.029Z,97538.81
2022-09-28T21:09:08.753Z,97532.22
2022-09-28T21:11:36.133Z,97525.56
2022-09-28T21:14:06.725Z,97509.84
2022-09-28T21:16:35.194Z,97512.25
2022-09-28T21:19:02.789Z,97552.81
2022-09-28T21:21:29.938Z,97547.22
2022-09-28T21:23:58.431Z,97515.88
2022-09-28T21:26:28.466Z,97559.59
2022-09-28T21:29:05.341Z,97539.47
2022-09-28T21:31:45.689Z,97551.38
2022-09-28T21:34:19.302Z,97531.91
2022-09-28T21:36:53.282Z,97530.56
2022-09-28T21:39:20.751Z,97504.69
2022-09-28T21:41:48.056Z,97491.94
2022-09-28T21:44:15.226Z,97529.47
2022-09-28T21:46:42.692Z,97513.00
2022-09-28T21:49:12.646Z,97507.13
2022-09-28T21:51:39.698Z,97505.22
2022-09-28T21:54:06.860Z,97490.06
2022-09-28T21:56:34.072Z,97525.31
2022-09-28T21:59:01.502Z,97510.38
2022-09-28T22:01:29.011Z,97501.75
2022-09-28T22:03:57.527Z,97481.03
2022-09-28T22:06:29.655Z,97485.84
2022-09-28T22:08:57.447Z,97525.91
2022-09-28T22:11:28.430Z,97504.91
2022-09-28T22:13:59.359Z,97513.56
2022-09-28T22:16:31.226Z,97518.16
2022-09-28T22:18:59.261Z,97525.47
2022-09-28T22:21:34.896Z,97504.97
2022-09-28T22:24:07.035Z,97485.84
2022-09-28T22:26:36.347Z,97518.34
2022-09-28T22:29:07.595Z,97484.91
2022-09-28T22:31:38.852Z,97484.84
2022-09-28T22:34:08.961Z,97505.97
2022-09-28T22:36:36.061Z,97511.78
2022-09-28T22:39:04.329Z,97498.97
2022-09-28T22:41:32.152Z,97491.13
2022-09-28T22:43:59.642Z,97514.59
2022-09-28T22:46:29.465Z,97527.34
2022-09-28T22:48:58.868Z,97502.03
2022-09-28T22:51:30.115Z,97463.59
2022-09-28T22:53:57.981Z,97454.09
2022-09-28T22:56:25.608Z,97497.63
2022-09-28T22:58:52.657Z,97496.16
2022-09-28T23:01:29.696Z,97502.66
2022-09-28T23:03:58.531Z,97443.84
2022-09-28T23:06:28.273Z,97475.03
2022-09-28T23:08:55.585Z,97466.34
2022-09-28T23:11:22.709Z,97467.28
2022-09-28T23:13:55.806Z,97449.94
2022-09-28T23:16:26.687Z,97445.41
2022-09-28T23:18:55.275Z,97479.50
2022-09-28T23:21:26.314Z,97461.03
2022-09-28T23:24:01.533Z,97443.22
2022-09-28T23:26:32.636Z,97444.44
2022-09-28T23:29:00.124Z,97449.94
2022-09-28T23:31:31.434Z,97438.91
2022-09-28T23:34:05.777Z,97442.41
2022-09-28T23:36:33.828Z,97430.66
2022-09-28T23:39:00.805Z,97428.22
2022-09-28T23:41:28.256Z,97446.94
2022-09-28T23:44:02.257Z,97452.69
2022-09-28T23:46:29.278Z,97407.44
2022-09-28T23:48:56.634Z,97418.75
2022-09-28T23:51:23.632Z,97457.00
2022-09-28T23:53:50.658Z,97429.81
2022-09-28T23:56:17.694Z,97421.69
2022-09-28T23:58:45.027Z,97444.31
